Terminal Aerodrome Forecast
Issued by NWS

Home | Current Version | Previous Version | Text Only | Print | Product List | Glossary On
Versions: 1 2 3 4 5 6 7 8 9 10 11 12 13 14 15 16 17 18 19 20
594
FTUS46 KEKA 282336
TAFCEC
TAF
KCEC 282336Z 2900/2924 28006KT P6SM BKN080
     FM290300 15005KT P6SM FEW050 BKN080 BKN250
     FM290600 16007KT P6SM BKN050 OVC080
     FM291200 16009KT P6SM -RA SCT035 OVC050
     FM291800 16012KT 5SM -RA BR SCT015 OVC035
     FM292100 17012KT 3SM -RA BR OVC015=

USA.gov is the U.S. government's official web portal to all federal, state and local government web resources and services.